sensor_id;sensor_type;location;lat;lon;timestamp;temperature;humidity
22145;DHT22;11238;48.730;11.566;2023-02-15T00:01:33;0.00;99.90
22145;DHT22;11238;48.730;11.566;2023-02-15T00:03:59;-0.10;99.90
22145;DHT22;11238;48.730;11.566;2023-02-15T00:06:25;-0.10;99.90
22145;DHT22;11238;48.730;11.566;2023-02-15T00:08:51;-0.10;99.90
22145;DHT22;11238;48.730;11.566;2023-02-15T00:11:18;-0.10;99.90
22145;DHT22;11238;48.730;11.566;2023-02-15T00:16:39;-0.10;99.90
22145;DHT22;11238;48.730;11.566;2023-02-15T00:19:05;-0.10;99.90
22145;DHT22;11238;48.730;11.566;2023-02-15T00:21:32;-0.10;99.90
22145;DHT22;11238;48.730;11.566;2023-02-15T00:24:03;-0.10;99.90
22145;DHT22;11238;48.730;11.566;2023-02-15T00:26:30;-0.10;99.90
22145;DHT22;11238;48.730;11.566;2023-02-15T00:28:56;-0.20;99.90
22145;DHT22;11238;48.730;11.566;2023-02-15T00:31:27;-0.20;99.90
22145;DHT22;11238;48.730;11.566;2023-02-15T00:33:55;-0.20;99.90
22145;DHT22;11238;48.730;11.566;2023-02-15T00:36:21;-0.30;99.90
22145;DHT22;11238;48.730;11.566;2023-02-15T00:38:47;-0.40;99.90
22145;DHT22;11238;48.730;11.566;2023-02-15T00:41:14;-0.70;99.90
22145;DHT22;11238;48.730;11.566;2023-02-15T00:43:39;-0.70;99.90
22145;DHT22;11238;48.730;11.566;2023-02-15T00:46:06;-0.70;99.90
22145;DHT22;11238;48.730;11.566;2023-02-15T00:48:32;-0.60;99.90
22145;DHT22;11238;48.730;11.566;2023-02-15T00:50:59;-0.50;99.90
22145;DHT22;11238;48.730;11.566;2023-02-15T00:53:27;-0.90;99.90
22145;DHT22;11238;48.730;11.566;2023-02-15T00:55:53;-0.80;99.90
22145;DHT22;11238;48.730;11.566;2023-02-15T00:58:19;-1.00;99.90
22145;DHT22;11238;48.730;11.566;2023-02-15T01:00:46;-0.90;99.90
22145;DHT22;11238;48.730;11.566;2023-02-15T01:03:14;-0.80;99.90
22145;DHT22;11238;48.730;11.566;2023-02-15T01:05:41;-0.60;99.90
22145;DHT22;11238;48.730;11.566;2023-02-15T01:08:07;-0.60;99.90
22145;DHT22;11238;48.730;11.566;2023-02-15T01:10:34;-0.50;99.90
22145;DHT22;11238;48.730;11.566;2023-02-15T01:13:00;-0.40;99.90
22145;DHT22;11238;48.730;11.566;2023-02-15T01:15:27;-0.40;99.90
22145;DHT22;11238;48.730;11.566;2023-02-15T01:17:53;-0.40;99.90
22145;DHT22;11238;48.730;11.566;2023-02-15T01:20:22;-0.50;99.90
22145;DHT22;11238;48.730;11.566;2023-02-15T01:22:49;-0.50;99.90
22145;DHT22;11238;48.730;11.566;2023-02-15T01:25:19;-0.40;99.90
22145;DHT22;11238;48.730;11.566;2023-02-15T01:27:46;-0.50;99.90
22145;DHT22;11238;48.730;11.566;2023-02-15T01:30:13;-0.50;99.90
22145;DHT22;11238;48.730;11.566;2023-02-15T01:32:39;-0.50;99.90
22145;DHT22;11238;48.730;11.566;2023-02-15T01:35:07;-0.50;99.90
22145;DHT22;11238;48.730;11.566;2023-02-15T01:37:34;-0.40;99.90
22145;DHT22;11238;48.730;11.566;2023-02-15T01:40:04;-0.40;99.90
22145;DHT22;11238;48.730;11.566;2023-02-15T01:42:30;-0.50;99.90
22145;DHT22;11238;48.730;11.566;2023-02-15T01:45:16;-0.70;99.90
22145;DHT22;11238;48.730;11.566;2023-02-15T01:50:21;-0.70;99.90
22145;DHT22;11238;48.730;11.566;2023-02-15T01:52:56;-0.60;99.90
22145;DHT22;11238;48.730;11.566;2023-02-15T01:55:25;-0.60;99.90
22145;DHT22;11238;48.730;11.566;2023-02-15T01:57:52;-0.60;99.90
22145;DHT22;11238;48.730;11.566;2023-02-15T02:00:18;-0.80;99.90
22145;DHT22;11238;48.730;11.566;2023-02-15T02:02:49;-0.80;99.90
22145;DHT22;11238;48.730;11.566;2023-02-15T02:05:16;-0.70;99.90
22145;DHT22;11238;48.730;11.566;2023-02-15T02:07:44;-0.70;99.90
22145;DHT22;11238;48.730;11.566;2023-02-15T02:10:14;-0.70;99.90
22145;DHT22;11238;48.730;11.566;2023-02-15T02:12:42;-0.80;99.90
22145;DHT22;11238;48.730;11.566;2023-02-15T02:15:09;-0.70;99.90
22145;DHT22;11238;48.730;11.566;2023-02-15T02:18:21;-0.60;99.90
22145;DHT22;11238;48.730;11.566;2023-02-15T02:23:43;-1.00;99.90
22145;DHT22;11238;48.730;11.566;2023-02-15T02:43:21;-1.10;99.90
22145;DHT22;11238;48.730;11.566;2023-02-15T02:46:05;-1.30;99.90
22145;DHT22;11238;48.730;11.566;2023-02-15T02:48:33;-1.30;99.90
22145;DHT22;11238;48.730;11.566;2023-02-15T02:50:59;-1.30;99.90
22145;DHT22;11238;48.730;11.566;2023-02-15T02:53:27;-1.10;99.90
22145;DHT22;11238;48.730;11.566;2023-02-15T02:55:58;-1.00;99.90
22145;DHT22;11238;48.730;11.566;2023-02-15T02:58:34;-0.90;99.90
22145;DHT22;11238;48.730;11.566;2023-02-15T03:01:27;-0.80;99.90
22145;DHT22;11238;48.730;11.566;2023-02-15T03:04:03;-0.70;99.90
22145;DHT22;11238;48.730;11.566;2023-02-15T03:06:42;-0.70;99.90
22145;DHT22;11238;48.730;11.566;2023-02-15T03:09:35;-0.70;99.90
22145;DHT22;11238;48.730;11.566;2023-02-15T03:12:22;-0.60;99.90
22145;DHT22;11238;48.730;11.566;2023-02-15T03:14:55;-0.60;99.90
22145;DHT22;11238;48.730;11.566;2023-02-15T03:17:26;-0.60;99.90
22145;DHT22;11238;48.730;11.566;2023-02-15T03:19:56;-0.50;99.90
22145;DHT22;11238;48.730;11.566;2023-02-15T03:22:28;-0.50;99.90
22145;DHT22;11238;48.730;11.566;2023-02-15T03:25:19;-0.50;99.90
22145;DHT22;11238;48.730;11.566;2023-02-15T03:27:50;-0.50;99.90
22145;DHT22;11238;48.730;11.566;2023-02-15T03:30:21;-0.40;99.90
22145;DHT22;11238;48.730;11.566;2023-02-15T03:32:48;-0.40;99.90
22145;DHT22;11238;48.730;11.566;2023-02-15T03:35:15;-0.40;99.90
22145;DHT22;11238;48.730;11.566;2023-02-15T03:37:48;-0.40;99.90
22145;DHT22;11238;48.730;11.566;2023-02-15T03:43:14;-0.40;99.90
22145;DHT22;11238;48.730;11.566;2023-02-15T03:45:45;-0.50;99.90
22145;DHT22;11238;48.730;11.566;2023-02-15T03:48:26;-0.40;99.90
22145;DHT22;11238;48.730;11.566;2023-02-15T03:50:54;-0.60;99.90
22145;DHT22;11238;48.730;11.566;2023-02-15T03:54:35;-0.50;99.90
22145;DHT22;11238;48.730;11.566;2023-02-15T03:57:17;-0.40;99.90
22145;DHT22;11238;48.730;11.566;2023-02-15T04:03:27;-0.60;99.90
22145;DHT22;11238;48.730;11.566;2023-02-15T04:05:57;-0.60;99.90
22145;DHT22;11238;48.730;11.566;2023-02-15T04:08:23;-0.70;99.90
22145;DHT22;11238;48.730;11.566;2023-02-15T04:11:09;-0.80;99.90
22145;DHT22;11238;48.730;11.566;2023-02-15T04:13:35;-0.90;99.90
22145;DHT22;11238;48.730;11.566;2023-02-15T04:16:01;-0.90;99.90
22145;DHT22;11238;48.730;11.566;2023-02-15T04:21:20;-0.90;99.90
22145;DHT22;11238;48.730;11.566;2023-02-15T04:24:09;-0.80;99.90
22145;DHT22;11238;48.730;11.566;2023-02-15T04:26:54;-0.70;99.90
22145;DHT22;11238;48.730;11.566;2023-02-15T04:29:21;-0.70;99.90
22145;DHT22;11238;48.730;11.566;2023-02-15T04:32:09;-0.60;99.90
22145;DHT22;11238;48.730;11.566;2023-02-15T04:34:35;-0.60;99.90
22145;DHT22;11238;48.730;11.566;2023-02-15T04:37:00;-0.60;99.90
22145;DHT22;11238;48.730;11.566;2023-02-15T04:39:26;-0.50;99.90
22145;DHT22;11238;48.730;11.566;2023-02-15T04:41:52;-0.50;99.90
22145;DHT22;11238;48.730;11.566;2023-02-15T04:44:18;-0.60;99.90
22145;DHT22;11238;48.730;11.566;2023-02-15T04:47:06;-0.70;99.90
22145;DHT22;11238;48.730;11.566;2023-02-15T04:49:32;-0.80;99.90
22145;DHT22;11238;48.730;11.566;2023-02-15T04:51:58;-0.70;99.90
22145;DHT22;11238;48.730;11.566;2023-02-15T04:54:24;-0.70;99.90
22145;DHT22;11238;48.730;11.566;2023-02-15T04:56:50;-0.80;99.90
22145;DHT22;11238;48.730;11.566;2023-02-15T04:59:16;-0.90;99.90
22145;DHT22;11238;48.730;11.566;2023-02-15T05:01:41;-0.90;99.90
22145;DHT22;11238;48.730;11.566;2023-02-15T05:04:07;-1.10;99.90
22145;DHT22;11238;48.730;11.566;2023-02-15T05:06:33;-1.20;99.90
22145;DHT22;11238;48.730;11.566;2023-02-15T05:08:59;-1.40;99.90
22145;DHT22;11238;48.730;11.566;2023-02-15T05:11:26;-1.40;99.90
22145;DHT22;11238;48.730;11.566;2023-02-15T05:13:52;-1.20;99.90
22145;DHT22;11238;48.730;11.566;2023-02-15T05:16:18;-1.20;99.90
22145;DHT22;11238;48.730;11.566;2023-02-15T05:18:44;-1.10;99.90
22145;DHT22;11238;48.730;11.566;2023-02-15T05:21:10;-1.10;99.90
22145;DHT22;11238;48.730;11.566;2023-02-15T05:23:36;-1.00;99.90
22145;DHT22;11238;48.730;11.566;2023-02-15T05:26:02;-0.90;99.90
22145;DHT22;11238;48.730;11.566;2023-02-15T05:29:09;-0.80;99.90
22145;DHT22;11238;48.730;11.566;2023-02-15T05:31:35;-0.80;99.90
22145;DHT22;11238;48.730;11.566;2023-02-15T05:34:01;-0.80;99.90
22145;DHT22;11238;48.730;11.566;2023-02-15T05:36:27;-0.80;99.90
22145;DHT22;11238;48.730;11.566;2023-02-15T05:38:54;-0.80;99.90
22145;DHT22;11238;48.730;11.566;2023-02-15T05:41:20;-0.80;99.90
22145;DHT22;11238;48.730;11.566;2023-02-15T05:43:46;-0.70;99.90
22145;DHT22;11238;48.730;11.566;2023-02-15T05:46:12;-0.70;99.90
22145;DHT22;11238;48.730;11.566;2023-02-15T05:48:41;-0.70;99.90
22145;DHT22;11238;48.730;11.566;2023-02-15T05:51:09;-0.70;99.90
22145;DHT22;11238;48.730;11.566;2023-02-15T05:53:37;-0.70;99.90
22145;DHT22;11238;48.730;11.566;2023-02-15T05:56:05;-0.80;99.90
22145;DHT22;11238;48.730;11.566;2023-02-15T05:58:33;-0.70;99.90
22145;DHT22;11238;48.730;11.566;2023-02-15T06:01:06;-0.70;99.90
22145;DHT22;11238;48.730;11.566;2023-02-15T06:03:32;-0.70;99.90
22145;DHT22;11238;48.730;11.566;2023-02-15T06:05:58;-0.80;99.90
22145;DHT22;11238;48.730;11.566;2023-02-15T06:08:24;-0.80;99.90
22145;DHT22;11238;48.730;11.566;2023-02-15T06:10:50;-0.80;99.90
22145;DHT22;11238;48.730;11.566;2023-02-15T06:13:16;-0.70;99.90
22145;DHT22;11238;48.730;11.566;2023-02-15T06:15:41;-0.70;99.90
22145;DHT22;11238;48.730;11.566;2023-02-15T06:18:07;-0.70;99.90
22145;DHT22;11238;48.730;11.566;2023-02-15T06:20:33;-0.70;99.90
22145;DHT22;11238;48.730;11.566;2023-02-15T06:22:59;-0.60;99.90
22145;DHT22;11238;48.730;11.566;2023-02-15T06:25:25;-0.60;99.90
22145;DHT22;11238;48.730;11.566;2023-02-15T06:27:51;-0.60;99.90
22145;DHT22;11238;48.730;11.566;2023-02-15T06:30:17;-0.60;99.90
22145;DHT22;11238;48.730;11.566;2023-02-15T06:32:43;-0.70;99.90
22145;DHT22;11238;48.730;11.566;2023-02-15T06:35:09;-0.80;99.90
22145;DHT22;11238;48.730;11.566;2023-02-15T06:37:36;-0.70;99.90
22145;DHT22;11238;48.730;11.566;2023-02-15T06:40:02;-0.70;99.90
22145;DHT22;11238;48.730;11.566;2023-02-15T06:42:29;-0.60;99.90
22145;DHT22;11238;48.730;11.566;2023-02-15T06:44:55;-0.70;99.90
22145;DHT22;11238;48.730;11.566;2023-02-15T06:47:21;-0.90;99.90
22145;DHT22;11238;48.730;11.566;2023-02-15T06:49:48;-0.80;99.90
22145;DHT22;11238;48.730;11.566;2023-02-15T06:52:14;-0.70;99.90
22145;DHT22;11238;48.730;11.566;2023-02-15T06:54:40;-0.70;99.90
22145;DHT22;11238;48.730;11.566;2023-02-15T06:57:06;-0.70;99.90
22145;DHT22;11238;48.730;11.566;2023-02-15T06:59:32;-0.70;99.90
22145;DHT22;11238;48.730;11.566;2023-02-15T07:01:58;-0.50;99.90
22145;DHT22;11238;48.730;11.566;2023-02-15T07:04:24;-0.40;99.90
22145;DHT22;11238;48.730;11.566;2023-02-15T07:06:50;-0.60;99.90
22145;DHT22;11238;48.730;11.566;2023-02-15T07:09:16;-0.70;99.90
22145;DHT22;11238;48.730;11.566;2023-02-15T07:11:42;-0.70;99.90
22145;DHT22;11238;48.730;11.566;2023-02-15T07:14:27;-0.90;99.90
22145;DHT22;11238;48.730;11.566;2023-02-15T07:17:14;-1.00;99.90
22145;DHT22;11238;48.730;11.566;2023-02-15T07:19:40;-1.10;99.90
22145;DHT22;11238;48.730;11.566;2023-02-15T07:22:06;-1.00;99.90
22145;DHT22;11238;48.730;11.566;2023-02-15T07:24:37;-1.00;99.90
22145;DHT22;11238;48.730;11.566;2023-02-15T07:27:30;-0.90;99.90
22145;DHT22;11238;48.730;11.566;2023-02-15T07:29:56;-0.80;99.90
22145;DHT22;11238;48.730;11.566;2023-02-15T07:32:41;-1.00;99.90
22145;DHT22;11238;48.730;11.566;2023-02-15T07:35:27;-1.10;99.90
22145;DHT22;11238;48.730;11.566;2023-02-15T07:37:54;-1.10;99.90
22145;DHT22;11238;48.730;11.566;2023-02-15T07:40:20;-1.10;99.90
22145;DHT22;11238;48.730;11.566;2023-02-15T07:42:49;-1.20;99.90
22145;DHT22;11238;48.730;11.566;2023-02-15T07:45:17;-1.10;99.90
22145;DHT22;11238;48.730;11.566;2023-02-15T07:47:43;-1.00;99.90
22145;DHT22;11238;48.730;11.566;2023-02-15T07:50:09;-1.00;99.90
22145;DHT22;11238;48.730;11.566;2023-02-15T07:52:36;-1.00;99.90
22145;DHT22;11238;48.730;11.566;2023-02-15T07:55:02;-1.10;99.90
22145;DHT22;11238;48.730;11.566;2023-02-15T07:57:28;-1.10;99.90
22145;DHT22;11238;48.730;11.566;2023-02-15T07:59:54;-1.00;99.90
22145;DHT22;11238;48.730;11.566;2023-02-15T08:02:20;-1.10;99.90
22145;DHT22;11238;48.730;11.566;2023-02-15T08:04:45;-0.90;99.90
22145;DHT22;11238;48.730;11.566;2023-02-15T08:07:11;-0.90;99.90
22145;DHT22;11238;48.730;11.566;2023-02-15T08:09:37;-0.80;99.90
22145;DHT22;11238;48.730;11.566;2023-02-15T08:12:03;-0.70;99.90
22145;DHT22;11238;48.730;11.566;2023-02-15T08:14:30;-0.70;99.90
22145;DHT22;11238;48.730;11.566;2023-02-15T08:16:55;-0.60;99.90
22145;DHT22;11238;48.730;11.566;2023-02-15T08:23:11;-0.70;99.90
22145;DHT22;11238;48.730;11.566;2023-02-15T08:25:49;-0.50;99.90
22145;DHT22;11238;48.730;11.566;2023-02-15T08:28:21;-0.70;99.90
22145;DHT22;11238;48.730;11.566;2023-02-15T08:30:50;-0.80;99.90
22145;DHT22;11238;48.730;11.566;2023-02-15T08:33:27;-0.80;99.90
22145;DHT22;11238;48.730;11.566;2023-02-15T08:35:56;-0.80;99.90
22145;DHT22;11238;48.730;11.566;2023-02-15T08:38:26;-0.70;99.90
22145;DHT22;11238;48.730;11.566;2023-02-15T08:40:52;-0.70;99.90
22145;DHT22;11238;48.730;11.566;2023-02-15T08:43:20;-0.80;99.90
22145;DHT22;11238;48.730;11.566;2023-02-15T08:45:46;-0.60;99.90
22145;DHT22;11238;48.730;11.566;2023-02-15T08:48:12;-0.70;99.90
22145;DHT22;11238;48.730;11.566;2023-02-15T08:50:42;-0.60;99.90
22145;DHT22;11238;48.730;11.566;2023-02-15T08:53:09;-0.50;99.90
22145;DHT22;11238;48.730;11.566;2023-02-15T08:58:47;-0.70;99.90
22145;DHT22;11238;48.730;11.566;2023-02-15T09:01:35;-0.70;99.90
22145;DHT22;11238;48.730;11.566;2023-02-15T09:04:06;-0.70;99.90
22145;DHT22;11238;48.730;11.566;2023-02-15T09:06:52;-0.60;99.90
22145;DHT22;11238;48.730;11.566;2023-02-15T09:09:19;-0.50;99.90
22145;DHT22;11238;48.730;11.566;2023-02-15T09:15:29;-0.30;99.90
22145;DHT22;11238;48.730;11.566;2023-02-15T09:18:38;-0.50;99.90
22145;DHT22;11238;48.730;11.566;2023-02-15T09:21:12;-0.40;99.90
22145;DHT22;11238;48.730;11.566;2023-02-15T09:23:42;-0.40;99.90
22145;DHT22;11238;48.730;11.566;2023-02-15T09:26:20;-0.40;99.90
22145;DHT22;11238;48.730;11.566;2023-02-15T09:28:47;-0.30;99.90
22145;DHT22;11238;48.730;11.566;2023-02-15T09:31:17;-0.20;99.90
22145;DHT22;11238;48.730;11.566;2023-02-15T09:33:45;-0.20;99.90
22145;DHT22;11238;48.730;11.566;2023-02-15T09:38:41;-0.10;99.90
22145;DHT22;11238;48.730;11.566;2023-02-15T09:48:32;0.00;99.90
22145;DHT22;11238;48.730;11.566;2023-02-15T09:51:21;0.10;99.90
22145;DHT22;11238;48.730;11.566;2023-02-15T09:54:13;0.20;99.90
22145;DHT22;11238;48.730;11.566;2023-02-15T09:57:07;0.10;99.90
22145;DHT22;11238;48.730;11.566;2023-02-15T09:59:49;-0.10;99.90
22145;DHT22;11238;48.730;11.566;2023-02-15T10:02:46;-0.20;99.90
22145;DHT22;11238;48.730;11.566;2023-02-15T10:07:57;-0.20;99.90
22145;DHT22;11238;48.730;11.566;2023-02-15T10:14:01;-0.10;99.90
22145;DHT22;11238;48.730;11.566;2023-02-15T10:27:53;0.20;99.90
22145;DHT22;11238;48.730;11.566;2023-02-15T10:30:57;0.20;99.90
22145;DHT22;11238;48.730;11.566;2023-02-15T10:33:38;0.10;99.90
22145;DHT22;11238;48.730;11.566;2023-02-15T10:36:21;0.20;99.90
22145;DHT22;11238;48.730;11.566;2023-02-15T10:50:54;0.30;99.90
22145;DHT22;11238;48.730;11.566;2023-02-15T10:56:38;0.40;99.90
22145;DHT22;11238;48.730;11.566;2023-02-15T11:02:04;0.40;99.90
22145;DHT22;11238;48.730;11.566;2023-02-15T11:04:50;0.40;99.90
22145;DHT22;11238;48.730;11.566;2023-02-15T11:07:32;0.50;99.90
22145;DHT22;11238;48.730;11.566;2023-02-15T11:10:21;0.40;99.90
22145;DHT22;11238;48.730;11.566;2023-02-15T11:12:49;0.50;99.90
22145;DHT22;11238;48.730;11.566;2023-02-15T11:15:32;0.30;99.90
22145;DHT22;11238;48.730;11.566;2023-02-15T11:18:13;0.20;99.90
22145;DHT22;11238;48.730;11.566;2023-02-15T11:20:52;0.10;99.90
22145;DHT22;11238;48.730;11.566;2023-02-15T11:23:24;0.10;99.90
22145;DHT22;11238;48.730;11.566;2023-02-15T11:26:00;0.20;99.90
22145;DHT22;11238;48.730;11.566;2023-02-15T11:31:19;0.50;99.90
22145;DHT22;11238;48.730;11.566;2023-02-15T11:33:50;0.60;99.90
22145;DHT22;11238;48.730;11.566;2023-02-15T11:36:21;0.60;99.90
22145;DHT22;11238;48.730;11.566;2023-02-15T11:38:52;0.60;99.90
22145;DHT22;11238;48.730;11.566;2023-02-15T11:41:24;0.50;99.90
22145;DHT22;11238;48.730;11.566;2023-02-15T11:43:59;0.50;99.90
22145;DHT22;11238;48.730;11.566;2023-02-15T11:46:28;0.50;99.90
22145;DHT22;11238;48.730;11.566;2023-02-15T11:48:55;0.70;99.90
22145;DHT22;11238;48.730;11.566;2023-02-15T11:51:22;0.80;99.90
22145;DHT22;11238;48.730;11.566;2023-02-15T11:53:49;0.90;99.90
22145;DHT22;11238;48.730;11.566;2023-02-15T11:56:19;0.80;99.90
22145;DHT22;11238;48.730;11.566;2023-02-15T11:58:59;0.90;99.90
22145;DHT22;11238;48.730;11.566;2023-02-15T12:01:44;0.90;99.90
22145;DHT22;11238;48.730;11.566;2023-02-15T12:04:20;1.00;99.90
22145;DHT22;11238;48.730;11.566;2023-02-15T12:07:17;1.00;99.90
22145;DHT22;11238;48.730;11.566;2023-02-15T12:10:05;1.10;99.90
22145;DHT22;11238;48.730;11.566;2023-02-15T12:12:40;1.20;99.90
22145;DHT22;11238;48.730;11.566;2023-02-15T12:15:09;1.20;99.90
22145;DHT22;11238;48.730;11.566;2023-02-15T12:17:48;1.30;99.90
22145;DHT22;11238;48.730;11.566;2023-02-15T12:22:54;1.10;99.90
22145;DHT22;11238;48.730;11.566;2023-02-15T12:25:37;1.00;99.90
22145;DHT22;11238;48.730;11.566;2023-02-15T12:28:35;1.10;99.90
22145;DHT22;11238;48.730;11.566;2023-02-15T12:31:06;1.10;99.90
22145;DHT22;11238;48.730;11.566;2023-02-15T12:33:42;1.10;99.90
22145;DHT22;11238;48.730;11.566;2023-02-15T12:36:30;1.10;99.90
22145;DHT22;11238;48.730;11.566;2023-02-15T12:41:44;1.10;99.90
22145;DHT22;11238;48.730;11.566;2023-02-15T12:44:33;1.20;99.90
22145;DHT22;11238;48.730;11.566;2023-02-15T12:47:21;1.20;99.90
22145;DHT22;11238;48.730;11.566;2023-02-15T12:50:15;1.30;99.90
22145;DHT22;11238;48.730;11.566;2023-02-15T12:52:46;1.20;99.90
22145;DHT22;11238;48.730;11.566;2023-02-15T12:55:22;1.40;99.90
22145;DHT22;11238;48.730;11.566;2023-02-15T12:57:49;1.50;99.90
22145;DHT22;11238;48.730;11.566;2023-02-15T13:00:30;1.50;99.90
22145;DHT22;11238;48.730;11.566;2023-02-15T13:02:59;1.60;99.90
22145;DHT22;11238;48.730;11.566;2023-02-15T13:05:43;1.60;99.90
22145;DHT22;11238;48.730;11.566;2023-02-15T13:08:20;1.60;99.90
22145;DHT22;11238;48.730;11.566;2023-02-15T13:11:10;1.70;99.90
22145;DHT22;11238;48.730;11.566;2023-02-15T13:13:52;1.80;99.90
22145;DHT22;11238;48.730;11.566;2023-02-15T13:17:07;1.90;99.90
22145;DHT22;11238;48.730;11.566;2023-02-15T13:19:51;2.00;99.90
22145;DHT22;11238;48.730;11.566;2023-02-15T13:22:41;2.00;99.90
22145;DHT22;11238;48.730;11.566;2023-02-15T13:25:22;2.10;99.90
22145;DHT22;11238;48.730;11.566;2023-02-15T13:27:52;2.10;99.90
22145;DHT22;11238;48.730;11.566;2023-02-15T13:30:28;2.10;99.90
22145;DHT22;11238;48.730;11.566;2023-02-15T13:35:57;2.00;99.90
22145;DHT22;11238;48.730;11.566;2023-02-15T13:38:45;1.90;99.90
22145;DHT22;11238;48.730;11.566;2023-02-15T13:41:41;2.10;99.90
22145;DHT22;11238;48.730;11.566;2023-02-15T13:44:25;2.20;99.90
22145;DHT22;11238;48.730;11.566;2023-02-15T13:47:32;2.20;99.90
22145;DHT22;11238;48.730;11.566;2023-02-15T13:55:47;2.10;99.90
22145;DHT22;11238;48.730;11.566;2023-02-15T14:09:47;2.40;99.90
22145;DHT22;11238;48.730;11.566;2023-02-15T14:12:35;2.40;99.90
22145;DHT22;11238;48.730;11.566;2023-02-15T14:19:05;2.40;99.90
22145;DHT22;11238;48.730;11.566;2023-02-15T14:21:50;2.40;99.90
22145;DHT22;11238;48.730;11.566;2023-02-15T14:24:33;2.40;99.90
22145;DHT22;11238;48.730;11.566;2023-02-15T14:27:13;2.50;99.90
22145;DHT22;11238;48.730;11.566;2023-02-15T14:32:25;2.50;99.90
22145;DHT22;11238;48.730;11.566;2023-02-15T14:35:00;2.50;99.90
22145;DHT22;11238;48.730;11.566;2023-02-15T14:40:30;2.50;99.90
22145;DHT22;11238;48.730;11.566;2023-02-15T14:46:27;2.50;99.90
22145;DHT22;11238;48.730;11.566;2023-02-15T14:49:03;2.50;99.90
22145;DHT22;11238;48.730;11.566;2023-02-15T14:59:43;2.50;99.90
22145;DHT22;11238;48.730;11.566;2023-02-15T15:08:42;2.40;99.90
22145;DHT22;11238;48.730;11.566;2023-02-15T15:13:58;2.40;99.90
22145;DHT22;11238;48.730;11.566;2023-02-15T15:19:04;2.30;99.90
22145;DHT22;11238;48.730;11.566;2023-02-15T15:32:30;2.30;99.90
22145;DHT22;11238;48.730;11.566;2023-02-15T15:41:38;2.20;99.90
22145;DHT22;11238;48.730;11.566;2023-02-15T15:44:22;2.00;99.90
22145;DHT22;11238;48.730;11.566;2023-02-15T15:47:02;1.90;99.90
22145;DHT22;11238;48.730;11.566;2023-02-15T15:49:33;1.70;99.90
22145;DHT22;11238;48.730;11.566;2023-02-15T15:52:12;1.80;99.90
22145;DHT22;11238;48.730;11.566;2023-02-15T15:54:40;1.80;99.90
22145;DHT22;11238;48.730;11.566;2023-02-15T15:57:19;1.80;99.90
22145;DHT22;11238;48.730;11.566;2023-02-15T15:59:48;1.90;99.90
22145;DHT22;11238;48.730;11.566;2023-02-15T16:02:17;2.00;99.90
22145;DHT22;11238;48.730;11.566;2023-02-15T16:04:45;2.00;99.90
22145;DHT22;11238;48.730;11.566;2023-02-15T16:09:57;2.00;99.90
22145;DHT22;11238;48.730;11.566;2023-02-15T16:12:27;1.70;99.90
22145;DHT22;11238;48.730;11.566;2023-02-15T16:14:54;1.80;99.90
22145;DHT22;11238;48.730;11.566;2023-02-15T16:17:24;1.90;99.90
22145;DHT22;11238;48.730;11.566;2023-02-15T16:19:51;1.80;99.90
22145;DHT22;11238;48.730;11.566;2023-02-15T16:22:21;1.80;99.90
22145;DHT22;11238;48.730;11.566;2023-02-15T16:27:46;1.60;99.90
22145;DHT22;11238;48.730;11.566;2023-02-15T16:32:54;1.70;99.90
22145;DHT22;11238;48.730;11.566;2023-02-15T16:35:21;1.70;99.90
22145;DHT22;11238;48.730;11.566;2023-02-15T16:37:47;1.60;99.90
22145;DHT22;11238;48.730;11.566;2023-02-15T16:43:10;1.60;99.90
22145;DHT22;11238;48.730;11.566;2023-02-15T16:45:38;1.70;99.90
22145;DHT22;11238;48.730;11.566;2023-02-15T16:48:17;1.70;99.90
22145;DHT22;11238;48.730;11.566;2023-02-15T16:50:49;1.70;99.90
22145;DHT22;11238;48.730;11.566;2023-02-15T16:53:20;1.80;99.90
22145;DHT22;11238;48.730;11.566;2023-02-15T16:55:51;1.60;99.90
22145;DHT22;11238;48.730;11.566;2023-02-15T16:58:22;1.60;99.90
22145;DHT22;11238;48.730;11.566;2023-02-15T17:00:49;1.60;99.90
22145;DHT22;11238;48.730;11.566;2023-02-15T17:05:45;1.70;99.90
22145;DHT22;11238;48.730;11.566;2023-02-15T17:08:27;1.70;99.90
22145;DHT22;11238;48.730;11.566;2023-02-15T17:13:26;1.70;99.90
22145;DHT22;11238;48.730;11.566;2023-02-15T17:18:25;1.70;99.90
22145;DHT22;11238;48.730;11.566;2023-02-15T17:20:54;1.60;99.90
22145;DHT22;11238;48.730;11.566;2023-02-15T17:23:30;1.60;99.90
22145;DHT22;11238;48.730;11.566;2023-02-15T17:25:57;1.60;99.90
22145;DHT22;11238;48.730;11.566;2023-02-15T17:28:26;1.60;99.90
22145;DHT22;11238;48.730;11.566;2023-02-15T17:30:54;1.40;99.90
22145;DHT22;11238;48.730;11.566;2023-02-15T17:33:36;1.40;99.90
22145;DHT22;11238;48.730;11.566;2023-02-15T17:38:31;1.40;99.90
22145;DHT22;11238;48.730;11.566;2023-02-15T17:40:56;1.40;99.90
22145;DHT22;11238;48.730;11.566;2023-02-15T17:43:25;1.10;99.90
22145;DHT22;11238;48.730;11.566;2023-02-15T17:45:51;1.00;99.90
22145;DHT22;11238;48.730;11.566;2023-02-15T17:48:23;1.10;99.90
22145;DHT22;11238;48.730;11.566;2023-02-15T17:50:50;1.20;99.90
22145;DHT22;11238;48.730;11.566;2023-02-15T17:53:16;1.10;99.90
22145;DHT22;11238;48.730;11.566;2023-02-15T17:55:44;1.30;99.90
22145;DHT22;11238;48.730;11.566;2023-02-15T17:58:14;1.20;99.90
22145;DHT22;11238;48.730;11.566;2023-02-15T18:00:43;1.00;99.90
22145;DHT22;11238;48.730;11.566;2023-02-15T18:03:41;1.10;99.90
22145;DHT22;11238;48.730;11.566;2023-02-15T18:06:26;1.20;99.90
22145;DHT22;11238;48.730;11.566;2023-02-15T18:09:13;1.30;99.90
22145;DHT22;11238;48.730;11.566;2023-02-15T18:11:59;1.30;99.90
22145;DHT22;11238;48.730;11.566;2023-02-15T18:14:28;1.30;99.90
22145;DHT22;11238;48.730;11.566;2023-02-15T18:16:54;1.30;99.90
22145;DHT22;11238;48.730;11.566;2023-02-15T18:19:24;1.30;99.90
22145;DHT22;11238;48.730;11.566;2023-02-15T18:21:51;1.30;99.90
22145;DHT22;11238;48.730;11.566;2023-02-15T18:24:20;1.30;99.90
22145;DHT22;11238;48.730;11.566;2023-02-15T18:26:48;1.30;99.90
22145;DHT22;11238;48.730;11.566;2023-02-15T18:29:15;1.30;99.90
22145;DHT22;11238;48.730;11.566;2023-02-15T18:31:41;1.30;99.90
22145;DHT22;11238;48.730;11.566;2023-02-15T18:34:24;1.30;99.90
22145;DHT22;11238;48.730;11.566;2023-02-15T18:36:51;1.20;99.90
22145;DHT22;11238;48.730;11.566;2023-02-15T18:42:22;1.20;99.90
22145;DHT22;11238;48.730;11.566;2023-02-15T18:44:49;1.20;99.90
22145;DHT22;11238;48.730;11.566;2023-02-15T18:47:17;1.20;99.90
22145;DHT22;11238;48.730;11.566;2023-02-15T18:49:43;1.30;99.90
22145;DHT22;11238;48.730;11.566;2023-02-15T18:52:18;1.30;99.90
22145;DHT22;11238;48.730;11.566;2023-02-15T18:54:44;1.30;99.90
22145;DHT22;11238;48.730;11.566;2023-02-15T18:57:14;1.20;99.90
22145;DHT22;11238;48.730;11.566;2023-02-15T18:59:41;1.20;99.90
22145;DHT22;11238;48.730;11.566;2023-02-15T19:02:17;1.20;99.90
22145;DHT22;11238;48.730;11.566;2023-02-15T19:04:44;1.30;99.90
22145;DHT22;11238;48.730;11.566;2023-02-15T19:07:16;1.30;99.90
22145;DHT22;11238;48.730;11.566;2023-02-15T19:09:47;1.30;99.90